createdAt,value
2022-10-23T00:00:10.663Z,0.3
2022-10-23T00:00:30.660Z,0.4
2022-10-23T00:00:50.758Z,0.3
2022-10-23T00:01:10.715Z,0.3
2022-10-23T00:01:30.765Z,0.3
2022-10-23T00:01:50.821Z,0.5
2022-10-23T00:02:10.909Z,0.6
2022-10-23T00:02:30.958Z,0.6
2022-10-23T00:02:51.084Z,0.6
2022-10-23T00:03:11.025Z,0.5
2022-10-23T00:03:31.101Z,0.5
2022-10-23T00:03:51.157Z,0.3
2022-10-23T00:04:11.210Z,0.3
2022-10-23T00:04:31.278Z,0.3
2022-10-23T00:04:51.348Z,0.3
2022-10-23T00:05:11.411Z,0.5
2022-10-23T00:05:31.477Z,0.5
2022-10-23T00:05:51.562Z,0.5
2022-10-23T00:06:11.619Z,0.5
2022-10-23T00:06:31.650Z,0.8
2022-10-23T00:06:51.722Z,0.6
2022-10-23T00:07:11.776Z,0.5
2022-10-23T00:07:31.836Z,0.5
2022-10-23T00:07:51.882Z,0.3
2022-10-23T00:08:11.943Z,0.3
2022-10-23T00:08:32.003Z,0.3
2022-10-23T00:08:52.057Z,0.3
2022-10-23T00:09:12.132Z,0.3
2022-10-23T00:09:32.164Z,0.3
2022-10-23T00:09:52.229Z,0.3
2022-10-23T00:10:12.275Z,0.4
2022-10-23T00:10:32.357Z,0.4
2022-10-23T00:10:52.423Z,0.4
2022-10-23T00:11:12.478Z,0.7
2022-10-23T00:11:32.538Z,0.5
2022-10-23T00:11:52.597Z,0.5
2022-10-23T00:12:12.632Z,0.4
2022-10-23T00:12:32.715Z,0.4
2022-10-23T00:12:52.769Z,0.4
2022-10-23T00:13:12.824Z,0.4
2022-10-23T00:13:32.882Z,0.5
2022-10-23T00:13:52.932Z,0.4
2022-10-23T00:14:12.991Z,0.4
2022-10-23T00:14:33.040Z,0.4
2022-10-23T00:14:53.101Z,0.5
2022-10-23T00:15:13.154Z,0.4
2022-10-23T00:15:33.211Z,0.4
2022-10-23T00:15:53.298Z,0.4
2022-10-23T00:16:13.353Z,0.4
2022-10-23T00:16:33.390Z,0.6
2022-10-23T00:16:53.448Z,0.7
2022-10-23T00:17:13.514Z,0.8
2022-10-23T00:17:33.563Z,0.7
2022-10-23T00:17:53.625Z,0.7
2022-10-23T00:18:13.675Z,0.7
2022-10-23T00:18:33.733Z,0.6
2022-10-23T00:18:53.782Z,0.6
2022-10-23T00:19:13.847Z,0.7
2022-10-23T00:19:33.903Z,0.6
2022-10-23T00:19:53.953Z,0.7
2022-10-23T00:20:14.008Z,0.5
2022-10-23T00:20:34.071Z,0.8
2022-10-23T00:20:54.126Z,0.7
2022-10-23T00:21:14.177Z,0.5
2022-10-23T00:21:34.226Z,0.5
2022-10-23T00:21:54.269Z,0.5
2022-10-23T00:22:14.339Z,0.6
2022-10-23T00:22:34.385Z,0.6
2022-10-23T00:22:54.480Z,0.6
2022-10-23T00:23:14.539Z,0.7
2022-10-23T00:23:34.600Z,0.6
2022-10-23T00:23:54.672Z,0.6
2022-10-23T00:24:14.715Z,0.6
2022-10-23T00:24:34.783Z,0.7
2022-10-23T00:24:54.830Z,0.5
2022-10-23T00:25:14.884Z,0.4
2022-10-23T00:25:34.946Z,0.4
2022-10-23T00:25:55.004Z,0.4
2022-10-23T00:26:15.054Z,0.4
2022-10-23T00:26:35.123Z,0.4
2022-10-23T00:26:55.192Z,0.5
2022-10-23T00:27:15.254Z,0.5
2022-10-23T00:27:35.293Z,0.5
2022-10-23T00:27:55.326Z,0.5
2022-10-23T00:28:15.411Z,0.5
2022-10-23T00:28:35.496Z,0.5
2022-10-23T00:28:55.537Z,0.4
2022-10-23T00:29:15.626Z,0.5
2022-10-23T00:29:35.695Z,0.7
2022-10-23T00:29:55.743Z,0.8
2022-10-23T00:30:15.814Z,0.7
2022-10-23T00:30:35.863Z,0.6
2022-10-23T00:30:55.920Z,0.5
2022-10-23T00:31:15.967Z,0.7
2022-10-23T00:31:36.021Z,0.5
2022-10-23T00:31:56.089Z,0.4
2022-10-23T00:32:16.132Z,0.4
2022-10-23T00:32:36.211Z,0.4
2022-10-23T00:32:56.253Z,0.4
2022-10-23T00:33:16.306Z,0.4
2022-10-23T00:33:36.360Z,0.6
2022-10-23T00:33:56.411Z,1
2022-10-23T00:34:16.476Z,0.9
2022-10-23T00:34:36.530Z,0.7
2022-10-23T00:34:56.593Z,0.7
2022-10-23T00:35:16.646Z,0.8
2022-10-23T00:35:36.707Z,0.6
2022-10-23T00:35:56.752Z,0.6
2022-10-23T00:36:16.813Z,0.6
2022-10-23T00:36:36.880Z,0.6
2022-10-23T00:36:56.919Z,0.6
2022-10-23T00:37:16.984Z,0.6
2022-10-23T00:37:37.021Z,0.4
2022-10-23T00:37:57.076Z,0.6
2022-10-23T00:38:17.148Z,0.6
2022-10-23T00:38:37.214Z,1
2022-10-23T00:38:57.269Z,1.2
2022-10-23T00:39:17.319Z,1.1
2022-10-23T00:39:37.387Z,1
2022-10-23T00:39:57.437Z,0.8
2022-10-23T00:40:17.477Z,0.7
2022-10-23T00:40:37.550Z,0.7
2022-10-23T00:40:57.596Z,0.6
2022-10-23T00:41:17.662Z,0.7
2022-10-23T00:41:37.736Z,0.8
2022-10-23T00:41:57.788Z,1.3
2022-10-23T00:42:17.846Z,1.1
2022-10-23T00:42:37.899Z,0.9
2022-10-23T00:42:57.961Z,0.8
2022-10-23T00:43:18.005Z,0.7
2022-10-23T00:43:38.065Z,0.5
2022-10-23T00:43:58.147Z,0.5
2022-10-23T00:44:18.191Z,0.7
2022-10-23T00:44:38.251Z,0.7
2022-10-23T00:44:58.321Z,0.6
2022-10-23T00:45:18.396Z,0.6
2022-10-23T00:45:38.470Z,0.7
2022-10-23T00:45:58.514Z,0.6
2022-10-23T00:46:18.589Z,0.6
2022-10-23T00:46:38.639Z,0.6
2022-10-23T00:46:58.686Z,0.9
2022-10-23T00:47:18.739Z,1.2
2022-10-23T00:47:38.809Z,0.9
2022-10-23T00:47:58.863Z,0.7
2022-10-23T00:48:18.914Z,0.6
2022-10-23T00:48:38.978Z,0.6
2022-10-23T00:48:59.137Z,0.6
2022-10-23T00:49:19.093Z,0.7
2022-10-23T00:49:41.999Z,0.9
2022-10-23T00:49:59.199Z,0.8
2022-10-23T00:50:19.277Z,0.9
2022-10-23T00:50:39.324Z,1.9
2022-10-23T00:50:59.355Z,1.8
2022-10-23T00:51:19.451Z,1.6
2022-10-23T00:51:39.521Z,1.1
2022-10-23T00:51:59.578Z,1.1
2022-10-23T00:52:19.633Z,1.1
2022-10-23T00:52:39.883Z,1
2022-10-23T00:52:59.748Z,0.9
2022-10-23T00:53:19.810Z,0.9
2022-10-23T00:53:39.868Z,1.1
2022-10-23T00:54:06.515Z,1.1
2022-10-23T00:54:23.900Z,1.2
2022-10-23T00:54:40.024Z,1.1
2022-10-23T00:55:00.086Z,1.4
2022-10-23T00:55:20.161Z,1.3
2022-10-23T00:55:40.206Z,1.1
2022-10-23T00:56:00.286Z,1
2022-10-23T00:56:20.312Z,1
2022-10-23T00:56:40.379Z,1
2022-10-23T00:57:00.425Z,1
2022-10-23T00:57:20.521Z,1
2022-10-23T00:57:40.531Z,1.1
2022-10-23T00:58:00.588Z,1
2022-10-23T00:58:20.648Z,1
2022-10-23T00:58:40.701Z,1
2022-10-23T00:59:00.759Z,1
2022-10-23T00:59:20.814Z,1
2022-10-23T00:59:40.877Z,1
2022-10-23T01:00:00.922Z,1
2022-10-23T01:00:20.975Z,1
2022-10-23T01:00:41.034Z,1
2022-10-23T01:01:01.124Z,0.8
2022-10-23T01:01:21.209Z,1
2022-10-23T01:01:41.337Z,0.9
2022-10-23T01:02:01.426Z,0.9
2022-10-23T01:02:21.435Z,0.7
2022-10-23T01:02:41.686Z,0.6
2022-10-23T01:03:01.425Z,0.8
2022-10-23T01:03:21.488Z,0.6
2022-10-23T01:03:41.544Z,0.5
2022-10-23T01:04:01.584Z,0.6
2022-10-23T01:04:21.638Z,0.6
2022-10-23T01:04:41.723Z,0.5
2022-10-23T01:05:01.774Z,0.6
2022-10-23T01:05:21.830Z,0.5
2022-10-23T01:05:41.913Z,0.5
2022-10-23T01:06:01.915Z,0.5
2022-10-23T01:06:21.996Z,0.6
2022-10-23T01:06:42.063Z,0.6
2022-10-23T01:07:02.111Z,0.6
2022-10-23T01:07:22.180Z,0.6
2022-10-23T01:07:42.516Z,0.5
2022-10-23T01:08:02.296Z,0.6
2022-10-23T01:08:22.372Z,0.6
2022-10-23T01:08:42.544Z,0.6
2022-10-23T01:09:02.485Z,0.7
2022-10-23T01:09:22.539Z,0.9
2022-10-23T01:09:42.597Z,0.9
2022-10-23T01:10:02.659Z,0.8
2022-10-23T01:10:22.704Z,0.8
2022-10-23T01:10:42.765Z,0.8
2022-10-23T01:11:02.827Z,0.9
2022-10-23T01:11:22.876Z,0.8
2022-10-23T01:11:42.931Z,0.8
2022-10-23T01:12:02.993Z,0.8
2022-10-23T01:12:23.033Z,0.8
2022-10-23T01:12:43.091Z,0.7
2022-10-23T01:13:03.154Z,0.8
2022-10-23T01:13:23.215Z,0.8
2022-10-23T01:13:43.261Z,0.8
2022-10-23T01:14:23.376Z,0.7
2022-10-23T01:14:43.429Z,0.7
2022-10-23T01:15:03.502Z,0.7
2022-10-23T01:15:23.547Z,0.8
2022-10-23T01:15:43.607Z,0.9
2022-10-23T01:16:03.666Z,0.8
2022-10-23T01:16:23.722Z,0.9
2022-10-23T01:16:43.770Z,0.8
2022-10-23T01:17:03.828Z,0.8
2022-10-23T01:17:23.886Z,0.7
2022-10-23T01:17:44.730Z,0.7
2022-10-23T01:18:03.991Z,0.6
2022-10-23T01:18:24.054Z,0.7
2022-10-23T01:18:44.129Z,0.6
2022-10-23T01:19:04.166Z,0.5
2022-10-23T01:19:24.209Z,0.5
2022-10-23T01:19:44.274Z,0.5
2022-10-23T01:20:04.318Z,0.5
2022-10-23T01:20:24.388Z,0.6
2022-10-23T01:20:44.449Z,0.5
2022-10-23T01:21:04.506Z,0.5
2022-10-23T01:21:24.556Z,0.5
2022-10-23T01:21:44.615Z,0.5
2022-10-23T01:22:04.668Z,0.5
2022-10-23T01:22:44.916Z,0.5
2022-10-23T01:23:04.837Z,0.5
2022-10-23T01:23:24.892Z,0.5
2022-10-23T01:23:44.953Z,0.4
2022-10-23T01:24:05.000Z,0.4
2022-10-23T01:24:25.061Z,0.4
2022-10-23T01:24:45.112Z,0.5
2022-10-23T01:25:05.175Z,0.5
2022-10-23T01:25:25.220Z,0.5
2022-10-23T01:25:45.269Z,0.7
2022-10-23T01:26:05.360Z,0.5
2022-10-23T01:26:25.423Z,0.6
2022-10-23T01:26:45.485Z,0.6
2022-10-23T01:27:05.548Z,0.5
2022-10-23T01:27:25.597Z,0.5
2022-10-23T01:27:45.665Z,0.5
2022-10-23T01:28:05.724Z,0.5
2022-10-23T01:28:25.781Z,0.6
2022-10-23T01:28:45.834Z,0.5
2022-10-23T01:29:05.889Z,0.6
2022-10-23T01:29:25.951Z,0.5
2022-10-23T01:29:46.002Z,0.6
2022-10-23T01:30:06.087Z,0.9
2022-10-23T01:30:26.117Z,0.9
2022-10-23T01:30:46.173Z,0.9
2022-10-23T01:31:06.237Z,0.9
2022-10-23T01:31:26.314Z,1.1
2022-10-23T01:31:46.346Z,0.9
2022-10-23T01:32:06.415Z,1.1
2022-10-23T01:32:26.486Z,1.4
2022-10-23T01:32:46.556Z,1.2
2022-10-23T01:33:06.612Z,1.4
2022-10-23T01:33:26.689Z,1.4
2022-10-23T01:33:46.729Z,1.3
2022-10-23T01:34:06.775Z,1.3
2022-10-23T01:34:26.830Z,1.6
2022-10-23T01:34:46.871Z,1.9
2022-10-23T01:35:06.951Z,2.1
2022-10-23T01:35:27.005Z,1.6
2022-10-23T01:35:47.061Z,1.4
2022-10-23T01:36:07.132Z,1.3
2022-10-23T01:36:27.180Z,1.6
2022-10-23T01:36:47.248Z,1.8
2022-10-23T01:37:07.309Z,1.5
2022-10-23T01:37:27.368Z,1.4
2022-10-23T01:37:47.416Z,1.6
2022-10-23T01:38:07.485Z,1.6
2022-10-23T01:38:27.526Z,1.3
2022-10-23T01:38:47.583Z,1.4
2022-10-23T01:39:07.650Z,1.3
2022-10-23T01:39:27.700Z,1.1
2022-10-23T01:39:47.759Z,1.1
2022-10-23T01:40:07.808Z,1.1
2022-10-23T01:40:27.865Z,0.9
2022-10-23T01:40:47.921Z,1
2022-10-23T01:41:07.986Z,0.9
2022-10-23T01:41:28.023Z,1
2022-10-23T01:41:48.094Z,0.9
2022-10-23T01:42:08.149Z,0.8
2022-10-23T01:42:28.226Z,0.9
2022-10-23T01:42:48.290Z,0.9
2022-10-23T01:43:08.323Z,0.9
2022-10-23T01:43:28.408Z,0.9
2022-10-23T01:43:48.444Z,0.9
2022-10-23T01:44:08.511Z,0.9
2022-10-23T01:44:28.576Z,0.9
2022-10-23T01:44:48.660Z,0.8
2022-10-23T01:45:08.728Z,0.8
2022-10-23T01:45:28.777Z,0.6
2022-10-23T01:45:48.846Z,0.6
2022-10-23T01:46:08.892Z,0.6
2022-10-23T01:46:28.949Z,0.6
2022-10-23T01:46:49.007Z,0.6
2022-10-23T01:47:09.129Z,0.6
2022-10-23T01:47:29.119Z,0.6
2022-10-23T01:47:49.186Z,0.6
2022-10-23T01:48:09.229Z,0.6
2022-10-23T01:48:29.274Z,0.7
2022-10-23T01:48:49.346Z,0.9
2022-10-23T01:49:09.418Z,0.9
2022-10-23T01:49:29.477Z,0.9
2022-10-23T01:49:49.529Z,0.8
2022-10-23T01:50:09.587Z,0.6
2022-10-23T01:50:29.648Z,0.7
2022-10-23T01:50:49.704Z,0.6
2022-10-23T01:51:09.756Z,0.6
2022-10-23T01:51:29.823Z,0.6
2022-10-23T01:51:49.872Z,0.6
2022-10-23T01:52:09.920Z,0.6
2022-10-23T01:52:29.979Z,0.7
2022-10-23T01:52:50.035Z,0.7
2022-10-23T01:53:10.096Z,0.8
2022-10-23T01:53:30.150Z,0.8
2022-10-23T01:53:50.207Z,0.8
2022-10-23T01:54:10.248Z,0.7
2022-10-23T01:54:30.324Z,0.7
2022-10-23T01:54:50.425Z,0.7
2022-10-23T01:55:10.490Z,0.8
2022-10-23T01:55:30.578Z,1.1
2022-10-23T01:55:50.618Z,0.9
2022-10-23T01:56:10.659Z,1.2
2022-10-23T01:56:30.725Z,1.1
2022-10-23T01:56:50.778Z,1.9
2022-10-23T01:57:10.838Z,2.2
2022-10-23T01:57:30.897Z,1.5
2022-10-23T01:57:50.952Z,1.3
2022-10-23T01:58:11.010Z,1
2022-10-23T01:58:31.080Z,1
2022-10-23T01:58:51.129Z,0.9
2022-10-23T01:59:11.173Z,1
2022-10-23T01:59:31.237Z,1.3
2022-10-23T01:59:51.291Z,1.3
2022-10-23T02:00:11.345Z,1.1
2022-10-23T02:00:31.405Z,1.1
2022-10-23T02:00:51.461Z,1.1
2022-10-23T02:01:11.678Z,1.3
2022-10-23T02:01:31.676Z,0.9
2022-10-23T02:02:54.876Z,0.6
2022-10-23T02:03:11.858Z,0.6
2022-10-23T02:03:31.918Z,0.6
2022-10-23T02:03:52.030Z,0.8
2022-10-23T02:04:12.033Z,0.9
2022-10-23T02:04:32.086Z,0.9
2022-10-23T02:04:52.138Z,0.9
2022-10-23T02:05:12.192Z,0.8
2022-10-23T02:05:32.244Z,0.7
2022-10-23T02:05:52.308Z,0.6
2022-10-23T02:06:12.368Z,0.7
2022-10-23T02:06:32.425Z,0.9
2022-10-23T02:06:52.478Z,0.9
2022-10-23T02:07:12.527Z,0.9
2022-10-23T02:07:32.606Z,0.9
2022-10-23T02:07:52.643Z,0.8
2022-10-23T02:08:12.692Z,0.7
2022-10-23T02:08:32.753Z,0.8
2022-10-23T02:08:52.805Z,0.6
2022-10-23T02:09:12.861Z,0.6
2022-10-23T02:09:32.918Z,0.6
2022-10-23T02:09:52.978Z,1
2022-10-23T02:10:13.030Z,1.2
2022-10-23T02:10:33.096Z,1
2022-10-23T02:10:53.149Z,0.7
2022-10-23T02:11:13.195Z,0.7
2022-10-23T02:11:33.264Z,0.6
2022-10-23T02:11:53.312Z,0.5
2022-10-23T02:12:13.378Z,0.5
2022-10-23T02:12:33.439Z,0.5
2022-10-23T02:14:08.741Z,0.4
2022-10-23T02:14:13.734Z,0.6
2022-10-23T02:14:33.791Z,0.4
2022-10-23T02:14:53.852Z,0.6
2022-10-23T02:15:13.903Z,0.7
2022-10-23T02:15:33.964Z,1
2022-10-23T02:15:54.038Z,0.7
2022-10-23T02:16:14.066Z,0.6
2022-10-23T02:16:34.131Z,0.6
2022-10-23T02:16:54.193Z,0.8
2022-10-23T02:17:14.249Z,0.8
2022-10-23T02:17:34.295Z,0.7
2022-10-23T02:17:54.340Z,0.9
2022-10-23T02:18:14.434Z,0.6
2022-10-23T02:18:34.475Z,0.6
2022-10-23T02:18:54.529Z,0.6
2022-10-23T02:19:14.585Z,0.4
2022-10-23T02:19:34.644Z,0.4
2022-10-23T02:19:54.698Z,0.4
2022-10-23T02:20:14.754Z,0.3
2022-10-23T02:20:34.868Z,0.3
2022-10-23T02:20:54.875Z,0.3
2022-10-23T02:21:14.913Z,0.3
2022-10-23T02:21:34.978Z,0.4
2022-10-23T02:21:55.051Z,0.6
2022-10-23T02:22:15.132Z,0.6
2022-10-23T02:22:35.200Z,0.5
2022-10-23T02:22:55.278Z,0.4
2022-10-23T02:23:15.359Z,0.4
2022-10-23T02:23:35.440Z,0.4
2022-10-23T02:23:56.294Z,0.4
2022-10-23T02:24:15.539Z,0.4
2022-10-23T02:24:35.587Z,0.4
2022-10-23T02:24:55.642Z,0.4
2022-10-23T02:25:15.720Z,0.4
2022-10-23T02:25:35.809Z,0.4
2022-10-23T02:25:55.893Z,0.4
2022-10-23T02:26:15.956Z,0.6
2022-10-23T02:26:36.035Z,0.7
2022-10-23T02:26:56.093Z,0.7
2022-10-23T02:27:16.161Z,0.7
2022-10-23T02:27:36.254Z,0.7
2022-10-23T02:27:56.342Z,0.6
2022-10-23T02:28:16.449Z,0.4
2022-10-23T02:28:36.510Z,0.5
2022-10-23T02:28:56.618Z,0.5
2022-10-23T02:29:16.648Z,0.7
2022-10-23T02:29:36.717Z,0.5
2022-10-23T02:29:56.768Z,0.6
2022-10-23T02:30:16.892Z,0.5
2022-10-23T02:30:36.952Z,0.5
2022-10-23T02:30:57.030Z,0.5
2022-10-23T02:31:17.125Z,0.4
2022-10-23T02:31:37.170Z,0.4
2022-10-23T02:31:57.301Z,0.4
2022-10-23T02:32:17.304Z,0.4
2022-10-23T02:32:37.396Z,0.5
2022-10-23T02:32:57.473Z,0.4
2022-10-23T02:33:17.560Z,0.4
2022-10-23T02:33:37.631Z,0.5
2022-10-23T02:33:57.737Z,0.5
2022-10-23T02:34:17.792Z,0.5
2022-10-23T02:34:37.867Z,0.5
2022-10-23T02:34:57.994Z,0.5
2022-10-23T02:35:18.046Z,0.4
2022-10-23T02:35:38.149Z,0.4
2022-10-23T02:35:58.196Z,0.4
2022-10-23T02:36:18.278Z,0.5
2022-10-23T02:36:38.379Z,0.4
2022-10-23T02:36:58.426Z,0.5
2022-10-23T02:37:18.583Z,0.4
2022-10-23T02:37:38.575Z,0.4
2022-10-23T02:37:58.659Z,0.4
2022-10-23T02:38:18.705Z,0.4
2022-10-23T02:38:38.797Z,0.5
2022-10-23T02:38:58.889Z,0.5
2022-10-23T02:39:18.969Z,0.5
2022-10-23T02:39:39.033Z,0.5
2022-10-23T02:39:59.149Z,0.4
2022-10-23T02:40:19.231Z,0.4
2022-10-23T02:40:39.317Z,0.4
2022-10-23T02:40:59.425Z,0.5
2022-10-23T02:41:19.454Z,0.5
2022-10-23T02:41:39.531Z,0.5
2022-10-23T02:41:59.618Z,0.7
2022-10-23T02:42:19.694Z,0.7
2022-10-23T02:42:39.761Z,0.6
2022-10-23T02:42:59.835Z,0.7
2022-10-23T02:43:19.890Z,0.7
2022-10-23T02:43:40.000Z,0.7
2022-10-23T02:44:00.073Z,0.6
2022-10-23T02:44:20.135Z,0.6
2022-10-23T02:44:40.180Z,0.6
2022-10-23T02:45:00.245Z,0.4
2022-10-23T02:45:20.342Z,0.4
2022-10-23T02:46:00.451Z,0.4
2022-10-23T02:46:20.505Z,0.4
2022-10-23T02:46:40.573Z,0.5
2022-10-23T02:47:00.649Z,0.4
2022-10-23T02:47:20.736Z,0.4
2022-10-23T02:47:41.147Z,0.4
2022-10-23T02:48:00.936Z,0.4
2022-10-23T02:48:21.002Z,0.4
2022-10-23T02:48:41.157Z,0.4
2022-10-23T02:49:01.136Z,0.3
2022-10-23T02:49:21.207Z,0.4
2022-10-23T02:49:41.274Z,0.4
2022-10-23T02:50:01.326Z,0.4
2022-10-23T02:50:21.416Z,0.4
2022-10-23T02:50:41.476Z,0.4
2022-10-23T02:51:01.525Z,0.4
2022-10-23T02:51:21.590Z,0.4
2022-10-23T02:51:41.678Z,0.4
2022-10-23T02:52:01.752Z,0.5
2022-10-23T02:52:21.818Z,0.5
2022-10-23T02:52:41.897Z,0.5
2022-10-23T02:53:01.995Z,0.5
2022-10-23T02:53:22.085Z,0.6
2022-10-23T02:53:42.147Z,0.7
2022-10-23T02:54:02.217Z,0.7
2022-10-23T02:54:22.291Z,0.7
2022-10-23T02:54:42.344Z,0.8
2022-10-23T02:55:02.419Z,0.8
2022-10-23T02:55:22.497Z,0.7
2022-10-23T02:55:42.573Z,0.8
2022-10-23T02:56:02.673Z,0.8
2022-10-23T02:56:22.750Z,0.8
2022-10-23T02:56:42.824Z,0.9
2022-10-23T02:57:02.904Z,0.7
2022-10-23T02:57:22.990Z,0.7
2022-10-23T02:57:43.441Z,0.9
2022-10-23T02:58:03.136Z,1
2022-10-23T02:58:23.213Z,0.9
2022-10-23T02:58:43.306Z,0.9
2022-10-23T02:59:03.365Z,0.7
2022-10-23T02:59:23.422Z,0.7
2022-10-23T02:59:43.485Z,0.7
2022-10-23T03:00:03.533Z,0.7
2022-10-23T03:00:23.597Z,0.7
2022-10-23T03:00:43.654Z,0.7
2022-10-23T03:01:03.759Z,0.9
2022-10-23T03:01:23.898Z,1
2022-10-23T03:01:43.954Z,1
2022-10-23T03:02:04.078Z,1
2022-10-23T03:02:24.246Z,0.9
2022-10-23T03:02:43.989Z,0.9
2022-10-23T03:03:04.035Z,1.2
2022-10-23T03:03:24.104Z,1.2
2022-10-23T03:03:44.151Z,1.2
2022-10-23T03:04:04.195Z,1.2
2022-10-23T03:04:24.260Z,1.1
2022-10-23T03:04:44.321Z,1.2
2022-10-23T03:05:04.393Z,1.4
2022-10-23T03:05:24.478Z,1.3
2022-10-23T03:05:44.515Z,1.3
2022-10-23T03:06:04.564Z,1.4
2022-10-23T03:06:24.634Z,1.6
2022-10-23T03:06:44.689Z,1.5
2022-10-23T03:07:04.752Z,1.3
2022-10-23T03:07:24.805Z,1.3
2022-10-23T03:07:45.087Z,1
2022-10-23T03:08:04.924Z,1.1
2022-10-23T03:08:24.988Z,1.1
2022-10-23T03:08:45.040Z,1
2022-10-23T03:09:05.084Z,0.9
2022-10-23T03:09:25.155Z,1
2022-10-23T03:09:45.213Z,1
2022-10-23T03:10:05.281Z,1.1
2022-10-23T03:10:25.356Z,1
2022-10-23T03:10:45.460Z,1.1
2022-10-23T03:11:05.469Z,1
2022-10-23T03:11:25.527Z,1.1
2022-10-23T03:11:45.589Z,1.1
2022-10-23T03:12:05.648Z,1.1
2022-10-23T03:12:25.711Z,1.3
2022-10-23T03:12:45.950Z,1.2
2022-10-23T03:13:05.838Z,1.3
2022-10-23T03:13:25.928Z,1.4
2022-10-23T03:13:45.967Z,1.4
2022-10-23T03:14:06.017Z,1.2
2022-10-23T03:14:26.058Z,1.5
2022-10-23T03:14:46.151Z,1.3
2022-10-23T03:15:06.246Z,1.4
2022-10-23T03:15:26.280Z,1.6
2022-10-23T03:15:46.377Z,1.6
2022-10-23T03:16:06.429Z,1.9
2022-10-23T03:16:26.493Z,1.8
2022-10-23T03:16:46.556Z,1.4
2022-10-23T03:17:06.619Z,1.6
2022-10-23T03:17:26.669Z,1.3
2022-10-23T03:17:46.729Z,1.8
2022-10-23T03:18:06.777Z,1.4
2022-10-23T03:18:26.830Z,1.4
2022-10-23T03:18:46.886Z,1.3
2022-10-23T03:19:06.995Z,1.6
2022-10-23T03:19:27.008Z,1.6
2022-10-23T03:19:47.065Z,1.3
2022-10-23T03:20:07.110Z,1.5
2022-10-23T03:20:27.164Z,1.3
2022-10-23T03:20:47.229Z,1.4
2022-10-23T03:21:07.296Z,1.3
2022-10-23T03:21:27.371Z,1.4
2022-10-23T03:21:47.421Z,1.3
2022-10-23T03:22:07.498Z,1.5
2022-10-23T03:22:27.535Z,1.4
2022-10-23T03:22:47.590Z,1.3
2022-10-23T03:23:07.680Z,1.8
2022-10-23T03:23:27.735Z,1.8
2022-10-23T03:23:47.803Z,1.7
2022-10-23T03:24:07.862Z,1.5
2022-10-23T03:24:27.916Z,1.7
2022-10-23T03:24:47.973Z,1.5
2022-10-23T03:25:08.031Z,1.6
2022-10-23T03:25:28.095Z,1.7
2022-10-23T03:25:48.140Z,1.7
2022-10-23T03:26:08.201Z,1.5
2022-10-23T03:26:28.259Z,1.7
2022-10-23T03:26:48.320Z,1.7
2022-10-23T03:27:08.372Z,1.5
2022-10-23T03:27:48.492Z,1.8
2022-10-23T03:28:08.535Z,1.9
2022-10-23T03:28:28.574Z,1.7
2022-10-23T03:28:48.645Z,1.5
2022-10-23T03:29:08.700Z,1.7
2022-10-23T03:29:28.759Z,1.8
2022-10-23T03:29:48.790Z,2.2
2022-10-23T03:30:08.846Z,1.7
2022-10-23T03:30:28.927Z,1.7
2022-10-23T03:30:48.996Z,2.4
2022-10-23T03:31:09.043Z,1.9
2022-10-23T03:31:29.098Z,1.7
2022-10-23T03:31:49.148Z,1.5
2022-10-23T03:32:09.213Z,1.7
2022-10-23T03:32:29.268Z,2.2
2022-10-23T03:32:49.318Z,1.8
2022-10-23T03:33:09.389Z,1.7
2022-10-23T03:33:29.432Z,1.8
2022-10-23T03:33:49.489Z,1.7
2022-10-23T03:34:09.550Z,2.2
2022-10-23T03:34:29.594Z,1.5
2022-10-23T03:34:49.659Z,1.5
2022-10-23T03:35:09.717Z,1.5
2022-10-23T03:35:29.780Z,1.5
2022-10-23T03:35:49.841Z,1.5
2022-10-23T03:36:09.886Z,1.7
2022-10-23T03:36:29.951Z,1.5
2022-10-23T03:36:49.999Z,2.2
2022-10-23T03:37:10.051Z,1.8
2022-10-23T03:37:30.113Z,2
2022-10-23T03:37:50.175Z,1.9
2022-10-23T03:38:10.229Z,1.5
2022-10-23T03:38:30.293Z,1.7
2022-10-23T03:38:50.351Z,2
2022-10-23T03:39:10.415Z,1.7
2022-10-23T03:39:30.467Z,1.7
2022-10-23T03:39:50.517Z,1.8
2022-10-23T03:40:10.610Z,1.5
2022-10-23T03:40:30.666Z,1.3
2022-10-23T03:40:50.704Z,1.5
2022-10-23T03:41:10.763Z,1.5
2022-10-23T03:41:30.836Z,1.3
2022-10-23T03:41:50.890Z,1.3
2022-10-23T03:42:10.938Z,1.3
2022-10-23T03:42:30.999Z,1.5
2022-10-23T03:42:51.063Z,1.5
2022-10-23T03:43:11.103Z,1.3
2022-10-23T03:43:31.155Z,1.3
2022-10-23T03:43:51.266Z,1.3
2022-10-23T03:44:11.252Z,1.2
2022-10-23T03:44:31.296Z,1.3
2022-10-23T03:44:51.373Z,1.5
2022-10-23T03:45:11.453Z,1.5
2022-10-23T03:45:31.545Z,1.5
2022-10-23T03:45:51.610Z,1.5
2022-10-23T03:46:11.655Z,1.5
2022-10-23T03:46:31.720Z,1.3
2022-10-23T03:46:51.773Z,1.3
2022-10-23T03:47:11.837Z,1.2
2022-10-23T03:47:31.892Z,1.5
2022-10-23T03:47:51.950Z,1.3
2022-10-23T03:48:11.981Z,1.2
2022-10-23T03:48:32.066Z,1.2
2022-10-23T03:48:52.125Z,1.1
2022-10-23T03:49:12.171Z,1
2022-10-23T03:49:32.227Z,1.3
2022-10-23T03:49:52.276Z,1.2
2022-10-23T03:50:12.336Z,1.3
2022-10-23T03:50:32.394Z,1.3
2022-10-23T03:50:52.454Z,1.3
2022-10-23T03:51:12.516Z,1.2
2022-10-23T03:51:32.571Z,1.2
2022-10-23T03:51:52.626Z,1.3
2022-10-23T03:52:12.747Z,1.3
2022-10-23T03:52:32.761Z,1.3
2022-10-23T03:52:52.800Z,1.3
2022-10-23T03:53:12.848Z,1.8
2022-10-23T03:53:32.915Z,1.5
2022-10-23T03:53:52.962Z,1.6
2022-10-23T03:54:13.025Z,1.5
2022-10-23T03:54:33.067Z,1.5
2022-10-23T03:54:53.114Z,1.5
2022-10-23T03:55:13.185Z,1.3
2022-10-23T03:55:33.248Z,1.2
2022-10-23T03:55:53.303Z,1.3
2022-10-23T03:56:13.350Z,1.3
2022-10-23T03:56:33.409Z,1.3
2022-10-23T03:56:56.558Z,1.6
2022-10-23T03:57:13.532Z,2
2022-10-23T03:57:33.579Z,1.5
2022-10-23T03:57:53.613Z,1.3
2022-10-23T03:58:13.701Z,1.8
2022-10-23T03:58:33.763Z,1.8
2022-10-23T03:58:53.840Z,1.8
2022-10-23T03:59:13.913Z,1.8
2022-10-23T03:59:33.963Z,2.2
2022-10-23T03:59:54.042Z,2.4
2022-10-23T04:00:14.073Z,1.8
2022-10-23T04:00:34.190Z,1.7
2022-10-23T04:00:54.168Z,1.5
2022-10-23T04:01:14.293Z,1.7
2022-10-23T04:01:34.358Z,1.7
2022-10-23T04:01:54.446Z,1.8
2022-10-23T04:02:14.510Z,2
2022-10-23T04:02:34.559Z,1.8
2022-10-23T04:02:54.520Z,1.9
2022-10-23T04:03:14.573Z,1.6
2022-10-23T04:03:34.622Z,1.6
2022-10-23T04:03:54.676Z,1.5
2022-10-23T04:04:14.746Z,1.5
2022-10-23T04:04:34.805Z,1.8
2022-10-23T04:04:54.864Z,1.7
2022-10-23T04:05:14.905Z,1.5
2022-10-23T04:05:34.972Z,1.5
2022-10-23T04:05:55.036Z,1.6
2022-10-23T04:06:15.092Z,1.7
2022-10-23T04:06:35.146Z,1.5
2022-10-23T04:06:55.199Z,1.3
2022-10-23T04:07:15.253Z,1.8
2022-10-23T04:07:35.310Z,1.5
2022-10-23T04:07:55.381Z,1.7
2022-10-23T04:08:19.173Z,1.5
2022-10-23T04:08:35.527Z,1.7
2022-10-23T04:08:55.580Z,1.6
2022-10-23T04:09:15.639Z,2
2022-10-23T04:09:35.692Z,1.6
2022-10-23T04:09:55.757Z,1.5
2022-10-23T04:10:15.800Z,1.5
2022-10-23T04:10:35.856Z,1.5
2022-10-23T04:10:55.916Z,1.3
2022-10-23T04:11:15.962Z,1.2
2022-10-23T04:11:36.006Z,1.3
2022-10-23T04:11:56.056Z,1.7
2022-10-23T04:12:16.136Z,1.5
2022-10-23T04:12:36.194Z,1.5
2022-10-23T04:12:56.247Z,1.3
2022-10-23T04:13:16.324Z,1.3
2022-10-23T04:13:36.377Z,1.3
2022-10-23T04:13:56.431Z,1.2
2022-10-23T04:14:16.501Z,1.3
2022-10-23T04:14:36.556Z,2.1
2022-10-23T04:14:56.607Z,2
2022-10-23T04:15:16.679Z,1.3
2022-10-23T04:15:36.735Z,1.2
2022-10-23T04:15:56.789Z,1.2
2022-10-23T04:16:16.850Z,1.3
2022-10-23T04:16:36.897Z,1.1
2022-10-23T04:16:56.930Z,1.2
2022-10-23T04:17:17.050Z,1.5
2022-10-23T04:17:37.078Z,1.3
2022-10-23T04:17:57.137Z,1.2
2022-10-23T04:18:17.186Z,1.1
2022-10-23T04:18:37.234Z,1.1
2022-10-23T04:18:57.299Z,1
2022-10-23T04:19:17.369Z,0.9
2022-10-23T04:19:37.409Z,1
2022-10-23T04:19:57.451Z,0.9
2022-10-23T04:20:17.487Z,0.9
2022-10-23T04:20:37.583Z,0.7
2022-10-23T04:20:57.646Z,0.7
2022-10-23T04:21:17.690Z,0.7
2022-10-23T04:21:37.776Z,0.8
2022-10-23T04:21:57.793Z,0.8
2022-10-23T04:22:17.879Z,0.8
2022-10-23T04:22:37.908Z,0.8
2022-10-23T04:22:57.982Z,0.7
2022-10-23T04:23:18.024Z,0.7
2022-10-23T04:23:38.087Z,1
2022-10-23T04:23:58.136Z,1.1
2022-10-23T04:24:18.191Z,1.1
2022-10-23T04:24:38.240Z,0.8
2022-10-23T04:24:58.299Z,0.8
2022-10-23T04:25:18.367Z,0.7
2022-10-23T04:25:38.490Z,0.8
2022-10-23T04:25:58.513Z,0.8
2022-10-23T04:26:18.570Z,1.1
2022-10-23T04:26:38.634Z,1.2
2022-10-23T04:26:58.686Z,1.1
2022-10-23T04:27:18.742Z,1.2
2022-10-23T04:27:38.802Z,1
2022-10-23T04:27:58.854Z,1
2022-10-23T04:28:18.905Z,1
2022-10-23T04:28:38.950Z,1
2022-10-23T04:28:59.009Z,0.8
2022-10-23T04:29:19.082Z,0.8
2022-10-23T04:29:39.113Z,0.9
2022-10-23T04:29:59.315Z,0.8
2022-10-23T04:30:19.223Z,0.8
2022-10-23T04:30:39.305Z,1
2022-10-23T04:30:59.361Z,0.8
2022-10-23T04:31:19.419Z,0.8
2022-10-23T04:31:39.500Z,1
2022-10-23T04:31:59.529Z,1
2022-10-23T04:32:19.587Z,1.1
2022-10-23T04:32:39.638Z,1.1
2022-10-23T04:32:59.700Z,1.1
2022-10-23T04:33:19.752Z,1.2
2022-10-23T04:33:39.813Z,1.3
2022-10-23T04:33:59.936Z,1.4
2022-10-23T04:34:19.926Z,1.1
2022-10-23T04:34:39.979Z,1.4
2022-10-23T04:35:00.040Z,1.2
2022-10-23T04:35:20.093Z,1.3
2022-10-23T04:35:40.146Z,1.5
2022-10-23T04:36:00.200Z,1.5
2022-10-23T04:36:20.258Z,1.5
2022-10-23T04:36:40.321Z,1.5
2022-10-23T04:37:00.364Z,1.6
2022-10-23T04:37:20.430Z,1.4
2022-10-23T04:37:40.865Z,1.6
2022-10-23T04:38:00.552Z,1.6
2022-10-23T04:38:20.609Z,1.5
2022-10-23T04:38:40.654Z,1.6
2022-10-23T04:39:00.743Z,1.5
2022-10-23T04:39:20.779Z,1.5
2022-10-23T04:39:40.835Z,1.5
2022-10-23T04:40:00.893Z,2
2022-10-23T04:40:20.956Z,1.6
2022-10-23T04:40:41.006Z,1.6